sensor_id;sensor_type;location;lat;lon;timestamp;P1;durP1;ratioP1;P2;durP2;ratioP2
7661;SDS011;30314;48.184;11.510;2023-05-15T00:02:06;7.57;;;4.97;;
7661;SDS011;30314;48.184;11.510;2023-05-15T00:04:32;6.83;;;4.60;;
7661;SDS011;30314;48.184;11.510;2023-05-15T00:06:59;8.00;;;5.10;;
7661;SDS011;30314;48.184;11.510;2023-05-15T00:09:27;6.10;;;4.40;;
7661;SDS011;30314;48.184;11.510;2023-05-15T00:11:53;5.03;;;4.10;;
7661;SDS011;30314;48.184;11.510;2023-05-15T00:14:20;6.43;;;4.70;;
7661;SDS011;30314;48.184;11.510;2023-05-15T00:16:47;8.90;;;5.53;;
7661;SDS011;30314;48.184;11.510;2023-05-15T00:19:13;6.67;;;5.23;;
7661;SDS011;30314;48.184;11.510;2023-05-15T00:21:40;8.03;;;5.60;;
7661;SDS011;30314;48.184;11.510;2023-05-15T00:24:07;6.03;;;4.87;;
7661;SDS011;30314;48.184;11.510;2023-05-15T00:26:34;7.13;;;5.13;;
7661;SDS011;30314;48.184;11.510;2023-05-15T00:29:02;8.33;;;6.40;;
7661;SDS011;30314;48.184;11.510;2023-05-15T00:31:29;8.80;;;6.50;;
7661;SDS011;30314;48.184;11.510;2023-05-15T00:33:57;9.00;;;6.97;;
7661;SDS011;30314;48.184;11.510;2023-05-15T00:36:23;7.37;;;4.80;;
7661;SDS011;30314;48.184;11.510;2023-05-15T00:38:51;9.37;;;6.60;;
7661;SDS011;30314;48.184;11.510;2023-05-15T00:41:19;10.93;;;6.90;;
7661;SDS011;30314;48.184;11.510;2023-05-15T00:43:48;10.77;;;6.60;;
7661;SDS011;30314;48.184;11.510;2023-05-15T00:46:18;9.97;;;6.63;;
7661;SDS011;30314;48.184;11.510;2023-05-15T00:48:47;11.80;;;6.03;;
7661;SDS011;30314;48.184;11.510;2023-05-15T00:51:16;8.63;;;6.00;;
7661;SDS011;30314;48.184;11.510;2023-05-15T00:53:43;11.13;;;6.87;;
7661;SDS011;30314;48.184;11.510;2023-05-15T00:56:10;10.80;;;6.93;;
7661;SDS011;30314;48.184;11.510;2023-05-15T00:58:37;10.70;;;7.10;;
7661;SDS011;30314;48.184;11.510;2023-05-15T01:01:04;9.73;;;7.30;;
7661;SDS011;30314;48.184;11.510;2023-05-15T01:03:34;12.30;;;7.00;;
7661;SDS011;30314;48.184;11.510;2023-05-15T01:06:01;9.57;;;6.87;;
7661;SDS011;30314;48.184;11.510;2023-05-15T01:08:41;10.93;;;7.40;;
7661;SDS011;30314;48.184;11.510;2023-05-15T01:11:15;12.50;;;7.50;;
7661;SDS011;30314;48.184;11.510;2023-05-15T01:13:44;8.50;;;5.93;;
7661;SDS011;30314;48.184;11.510;2023-05-15T01:16:10;8.80;;;6.80;;
7661;SDS011;30314;48.184;11.510;2023-05-15T01:18:37;9.80;;;6.43;;
7661;SDS011;30314;48.184;11.510;2023-05-15T01:21:17;12.70;;;8.27;;
7661;SDS011;30314;48.184;11.510;2023-05-15T01:30:21;11.93;;;7.57;;
7661;SDS011;30314;48.184;11.510;2023-05-15T01:33:05;11.40;;;7.63;;
7661;SDS011;30314;48.184;11.510;2023-05-15T01:35:40;15.83;;;9.30;;
7661;SDS011;30314;48.184;11.510;2023-05-15T01:38:14;9.63;;;6.60;;
7661;SDS011;30314;48.184;11.510;2023-05-15T01:40:45;15.60;;;8.97;;
7661;SDS011;30314;48.184;11.510;2023-05-15T01:43:14;13.80;;;8.43;;
7661;SDS011;30314;48.184;11.510;2023-05-15T01:45:45;12.33;;;7.70;;
7661;SDS011;30314;48.184;11.510;2023-05-15T01:48:13;14.00;;;9.17;;
7661;SDS011;30314;48.184;11.510;2023-05-15T01:53:36;13.20;;;8.53;;
7661;SDS011;30314;48.184;11.510;2023-05-15T01:56:04;12.67;;;8.27;;
7661;SDS011;30314;48.184;11.510;2023-05-15T01:58:35;15.67;;;10.30;;
7661;SDS011;30314;48.184;11.510;2023-05-15T02:01:05;14.40;;;9.60;;
7661;SDS011;30314;48.184;11.510;2023-05-15T02:03:34;14.40;;;9.67;;
7661;SDS011;30314;48.184;11.510;2023-05-15T02:06:02;14.97;;;8.80;;
7661;SDS011;30314;48.184;11.510;2023-05-15T02:08:31;17.13;;;10.90;;
7661;SDS011;30314;48.184;11.510;2023-05-15T02:10:58;16.10;;;9.80;;
7661;SDS011;30314;48.184;11.510;2023-05-15T02:13:26;14.23;;;10.27;;
7661;SDS011;30314;48.184;11.510;2023-05-15T02:15:54;15.70;;;10.60;;
7661;SDS011;30314;48.184;11.510;2023-05-15T02:18:21;17.97;;;10.40;;
7661;SDS011;30314;48.184;11.510;2023-05-15T02:20:48;19.30;;;11.10;;
7661;SDS011;30314;48.184;11.510;2023-05-15T02:23:14;17.53;;;10.70;;
7661;SDS011;30314;48.184;11.510;2023-05-15T02:25:44;18.53;;;11.00;;
7661;SDS011;30314;48.184;11.510;2023-05-15T02:28:23;17.93;;;10.60;;
7661;SDS011;30314;48.184;11.510;2023-05-15T02:30:59;17.27;;;11.50;;
7661;SDS011;30314;48.184;11.510;2023-05-15T02:33:41;17.53;;;11.90;;
7661;SDS011;30314;48.184;11.510;2023-05-15T02:36:18;17.93;;;11.67;;
7661;SDS011;30314;48.184;11.510;2023-05-15T02:38:52;19.73;;;11.40;;
7661;SDS011;30314;48.184;11.510;2023-05-15T02:41:19;22.97;;;12.60;;
7661;SDS011;30314;48.184;11.510;2023-05-15T02:43:47;16.57;;;10.10;;
7661;SDS011;30314;48.184;11.510;2023-05-15T02:46:17;19.30;;;11.73;;
7661;SDS011;30314;48.184;11.510;2023-05-15T02:48:46;21.13;;;12.37;;
7661;SDS011;30314;48.184;11.510;2023-05-15T02:51:13;18.10;;;10.70;;
7661;SDS011;30314;48.184;11.510;2023-05-15T02:53:41;20.07;;;12.30;;
7661;SDS011;30314;48.184;11.510;2023-05-15T02:56:08;18.40;;;11.53;;
7661;SDS011;30314;48.184;11.510;2023-05-15T02:58:35;15.97;;;10.60;;
7661;SDS011;30314;48.184;11.510;2023-05-15T03:01:02;16.40;;;10.80;;
7661;SDS011;30314;48.184;11.510;2023-05-15T03:03:30;18.77;;;12.23;;
7661;SDS011;30314;48.184;11.510;2023-05-15T03:05:56;15.87;;;10.50;;
7661;SDS011;30314;48.184;11.510;2023-05-15T03:08:23;15.83;;;10.47;;
7661;SDS011;30314;48.184;11.510;2023-05-15T03:10:49;17.40;;;11.10;;
7661;SDS011;30314;48.184;11.510;2023-05-15T03:13:16;17.87;;;10.53;;
7661;SDS011;30314;48.184;11.510;2023-05-15T03:15:43;20.17;;;9.77;;
7661;SDS011;30314;48.184;11.510;2023-05-15T03:18:10;17.37;;;10.30;;
7661;SDS011;30314;48.184;11.510;2023-05-15T03:20:37;14.63;;;10.03;;
7661;SDS011;30314;48.184;11.510;2023-05-15T03:23:04;13.90;;;8.90;;
7661;SDS011;30314;48.184;11.510;2023-05-15T03:25:30;13.63;;;9.40;;
7661;SDS011;30314;48.184;11.510;2023-05-15T03:27:57;15.03;;;9.57;;
7661;SDS011;30314;48.184;11.510;2023-05-15T03:30:23;16.77;;;10.10;;
7661;SDS011;30314;48.184;11.510;2023-05-15T03:32:50;15.97;;;9.53;;
7661;SDS011;30314;48.184;11.510;2023-05-15T03:35:16;15.97;;;10.77;;
7661;SDS011;30314;48.184;11.510;2023-05-15T03:37:43;15.87;;;10.93;;
7661;SDS011;30314;48.184;11.510;2023-05-15T03:40:10;15.10;;;9.93;;
7661;SDS011;30314;48.184;11.510;2023-05-15T03:42:37;17.17;;;10.00;;
7661;SDS011;30314;48.184;11.510;2023-05-15T03:45:03;15.13;;;9.47;;
7661;SDS011;30314;48.184;11.510;2023-05-15T03:47:31;16.23;;;10.73;;
7661;SDS011;30314;48.184;11.510;2023-05-15T03:49:57;12.40;;;8.30;;
7661;SDS011;30314;48.184;11.510;2023-05-15T03:52:24;13.50;;;9.47;;
7661;SDS011;30314;48.184;11.510;2023-05-15T03:54:51;16.20;;;10.00;;
7661;SDS011;30314;48.184;11.510;2023-05-15T03:57:17;15.83;;;10.43;;
7661;SDS011;30314;48.184;11.510;2023-05-15T03:59:44;13.83;;;8.80;;
7661;SDS011;30314;48.184;11.510;2023-05-15T04:02:10;14.97;;;9.33;;
7661;SDS011;30314;48.184;11.510;2023-05-15T04:04:37;14.40;;;9.40;;
7661;SDS011;30314;48.184;11.510;2023-05-15T04:07:04;15.10;;;9.50;;
7661;SDS011;30314;48.184;11.510;2023-05-15T04:09:31;17.93;;;9.00;;
7661;SDS011;30314;48.184;11.510;2023-05-15T04:11:57;14.43;;;9.13;;
7661;SDS011;30314;48.184;11.510;2023-05-15T04:14:24;16.30;;;9.10;;
7661;SDS011;30314;48.184;11.510;2023-05-15T04:16:50;16.20;;;9.57;;
7661;SDS011;30314;48.184;11.510;2023-05-15T04:19:17;13.90;;;9.83;;
7661;SDS011;30314;48.184;11.510;2023-05-15T04:21:44;12.40;;;9.10;;
7661;SDS011;30314;48.184;11.510;2023-05-15T04:24:10;13.77;;;9.30;;
7661;SDS011;30314;48.184;11.510;2023-05-15T04:26:37;15.10;;;9.70;;
7661;SDS011;30314;48.184;11.510;2023-05-15T04:29:04;12.87;;;8.60;;
7661;SDS011;30314;48.184;11.510;2023-05-15T04:31:31;14.13;;;8.87;;
7661;SDS011;30314;48.184;11.510;2023-05-15T04:33:58;15.90;;;10.30;;
7661;SDS011;30314;48.184;11.510;2023-05-15T04:36:24;15.93;;;9.03;;
7661;SDS011;30314;48.184;11.510;2023-05-15T04:38:51;14.50;;;9.57;;
7661;SDS011;30314;48.184;11.510;2023-05-15T04:41:17;12.93;;;9.30;;
7661;SDS011;30314;48.184;11.510;2023-05-15T04:43:44;13.37;;;8.93;;
7661;SDS011;30314;48.184;11.510;2023-05-15T04:46:11;17.77;;;10.90;;
7661;SDS011;30314;48.184;11.510;2023-05-15T04:48:38;11.10;;;8.40;;
7661;SDS011;30314;48.184;11.510;2023-05-15T04:51:04;12.93;;;9.33;;
7661;SDS011;30314;48.184;11.510;2023-05-15T04:53:31;19.23;;;9.97;;
7661;SDS011;30314;48.184;11.510;2023-05-15T04:55:57;17.77;;;10.67;;
7661;SDS011;30314;48.184;11.510;2023-05-15T04:58:24;15.50;;;9.53;;
7661;SDS011;30314;48.184;11.510;2023-05-15T05:00:50;16.50;;;9.83;;
7661;SDS011;30314;48.184;11.510;2023-05-15T05:03:17;14.77;;;10.07;;
7661;SDS011;30314;48.184;11.510;2023-05-15T05:05:44;13.30;;;8.60;;
7661;SDS011;30314;48.184;11.510;2023-05-15T05:08:10;14.33;;;8.77;;
7661;SDS011;30314;48.184;11.510;2023-05-15T05:10:37;16.33;;;10.70;;
7661;SDS011;30314;48.184;11.510;2023-05-15T05:13:03;13.67;;;9.07;;
7661;SDS011;30314;48.184;11.510;2023-05-15T05:15:30;13.30;;;8.73;;
7661;SDS011;30314;48.184;11.510;2023-05-15T05:17:57;19.47;;;10.47;;
7661;SDS011;30314;48.184;11.510;2023-05-15T05:20:24;16.27;;;10.63;;
7661;SDS011;30314;48.184;11.510;2023-05-15T05:22:50;16.60;;;9.63;;
7661;SDS011;30314;48.184;11.510;2023-05-15T05:25:17;13.90;;;9.97;;
7661;SDS011;30314;48.184;11.510;2023-05-15T05:27:43;15.00;;;9.57;;
7661;SDS011;30314;48.184;11.510;2023-05-15T05:30:10;18.40;;;9.03;;
7661;SDS011;30314;48.184;11.510;2023-05-15T05:32:37;12.73;;;9.20;;
7661;SDS011;30314;48.184;11.510;2023-05-15T05:35:04;17.17;;;10.13;;
7661;SDS011;30314;48.184;11.510;2023-05-15T05:37:31;15.70;;;11.20;;
7661;SDS011;30314;48.184;11.510;2023-05-15T05:39:58;15.27;;;10.37;;
7661;SDS011;30314;48.184;11.510;2023-05-15T05:42:24;15.13;;;9.90;;
7661;SDS011;30314;48.184;11.510;2023-05-15T05:44:52;14.00;;;9.37;;
7661;SDS011;30314;48.184;11.510;2023-05-15T05:47:18;12.67;;;9.10;;
7661;SDS011;30314;48.184;11.510;2023-05-15T05:49:45;15.63;;;10.70;;
7661;SDS011;30314;48.184;11.510;2023-05-15T05:52:13;15.40;;;9.30;;
7661;SDS011;30314;48.184;11.510;2023-05-15T05:54:41;14.27;;;9.90;;
7661;SDS011;30314;48.184;11.510;2023-05-15T05:57:08;14.97;;;10.40;;
7661;SDS011;30314;48.184;11.510;2023-05-15T05:59:35;13.10;;;9.53;;
7661;SDS011;30314;48.184;11.510;2023-05-15T06:02:03;14.90;;;10.30;;
7661;SDS011;30314;48.184;11.510;2023-05-15T06:04:30;16.20;;;10.57;;
7661;SDS011;30314;48.184;11.510;2023-05-15T06:07:01;25.90;;;11.63;;
7661;SDS011;30314;48.184;11.510;2023-05-15T06:09:28;14.17;;;9.23;;
7661;SDS011;30314;48.184;11.510;2023-05-15T06:11:54;16.53;;;11.47;;
7661;SDS011;30314;48.184;11.510;2023-05-15T06:14:21;17.50;;;10.97;;
7661;SDS011;30314;48.184;11.510;2023-05-15T06:16:48;11.90;;;8.70;;
7661;SDS011;30314;48.184;11.510;2023-05-15T06:19:15;28.43;;;11.50;;
7661;SDS011;30314;48.184;11.510;2023-05-15T06:21:42;13.80;;;9.10;;
7661;SDS011;30314;48.184;11.510;2023-05-15T06:24:09;16.57;;;10.77;;
7661;SDS011;30314;48.184;11.510;2023-05-15T06:26:35;12.83;;;9.37;;
7661;SDS011;30314;48.184;11.510;2023-05-15T06:29:02;16.13;;;9.73;;
7661;SDS011;30314;48.184;11.510;2023-05-15T06:31:28;20.63;;;9.77;;
7661;SDS011;30314;48.184;11.510;2023-05-15T06:33:55;15.37;;;8.57;;
7661;SDS011;30314;48.184;11.510;2023-05-15T06:36:24;15.47;;;8.83;;
7661;SDS011;30314;48.184;11.510;2023-05-15T06:38:56;13.97;;;9.07;;
7661;SDS011;30314;48.184;11.510;2023-05-15T06:41:22;15.40;;;11.10;;
7661;SDS011;30314;48.184;11.510;2023-05-15T06:43:49;15.73;;;9.57;;
7661;SDS011;30314;48.184;11.510;2023-05-15T06:46:16;14.87;;;10.03;;
7661;SDS011;30314;48.184;11.510;2023-05-15T06:48:44;12.70;;;8.70;;
7661;SDS011;30314;48.184;11.510;2023-05-15T06:51:12;13.40;;;9.57;;
7661;SDS011;30314;48.184;11.510;2023-05-15T06:53:40;13.90;;;9.53;;
7661;SDS011;30314;48.184;11.510;2023-05-15T06:56:07;14.63;;;8.90;;
7661;SDS011;30314;48.184;11.510;2023-05-15T06:58:34;13.00;;;9.07;;
7661;SDS011;30314;48.184;11.510;2023-05-15T07:01:02;12.60;;;8.43;;
7661;SDS011;30314;48.184;11.510;2023-05-15T07:03:29;11.50;;;8.07;;
7661;SDS011;30314;48.184;11.510;2023-05-15T07:05:55;9.97;;;8.10;;
7661;SDS011;30314;48.184;11.510;2023-05-15T07:08:22;11.40;;;8.10;;
7661;SDS011;30314;48.184;11.510;2023-05-15T07:10:49;13.13;;;9.37;;
7661;SDS011;30314;48.184;11.510;2023-05-15T07:13:16;13.73;;;8.97;;
7661;SDS011;30314;48.184;11.510;2023-05-15T07:15:43;13.30;;;8.27;;
7661;SDS011;30314;48.184;11.510;2023-05-15T07:18:10;11.53;;;7.53;;
7661;SDS011;30314;48.184;11.510;2023-05-15T07:20:37;11.33;;;8.67;;
7661;SDS011;30314;48.184;11.510;2023-05-15T07:23:04;12.80;;;7.87;;
7661;SDS011;30314;48.184;11.510;2023-05-15T07:25:31;13.70;;;8.50;;
7661;SDS011;30314;48.184;11.510;2023-05-15T07:27:57;12.97;;;8.33;;
7661;SDS011;30314;48.184;11.510;2023-05-15T07:30:24;13.10;;;7.67;;
7661;SDS011;30314;48.184;11.510;2023-05-15T07:32:51;13.67;;;8.43;;
7661;SDS011;30314;48.184;11.510;2023-05-15T07:35:18;10.57;;;7.10;;
7661;SDS011;30314;48.184;11.510;2023-05-15T07:37:44;11.63;;;7.17;;
7661;SDS011;30314;48.184;11.510;2023-05-15T07:40:12;15.60;;;8.60;;
7661;SDS011;30314;48.184;11.510;2023-05-15T07:42:38;14.50;;;8.20;;
7661;SDS011;30314;48.184;11.510;2023-05-15T07:45:06;14.60;;;8.27;;
7661;SDS011;30314;48.184;11.510;2023-05-15T07:47:33;12.30;;;8.00;;
7661;SDS011;30314;48.184;11.510;2023-05-15T07:50:01;12.80;;;8.10;;
7661;SDS011;30314;48.184;11.510;2023-05-15T07:52:28;9.10;;;7.33;;
7661;SDS011;30314;48.184;11.510;2023-05-15T07:54:54;10.20;;;7.20;;
7661;SDS011;30314;48.184;11.510;2023-05-15T07:57:21;11.23;;;7.00;;
7661;SDS011;30314;48.184;11.510;2023-05-15T07:59:48;10.00;;;6.57;;
7661;SDS011;30314;48.184;11.510;2023-05-15T08:02:14;7.90;;;6.00;;
7661;SDS011;30314;48.184;11.510;2023-05-15T08:04:41;9.17;;;6.60;;
7661;SDS011;30314;48.184;11.510;2023-05-15T08:07:07;11.60;;;5.80;;
7661;SDS011;30314;48.184;11.510;2023-05-15T08:09:34;7.77;;;5.93;;
7661;SDS011;30314;48.184;11.510;2023-05-15T08:12:13;9.10;;;6.43;;
7661;SDS011;30314;48.184;11.510;2023-05-15T08:14:42;9.17;;;5.83;;
7661;SDS011;30314;48.184;11.510;2023-05-15T08:17:09;8.07;;;5.37;;
7661;SDS011;30314;48.184;11.510;2023-05-15T08:19:35;5.93;;;4.60;;
7661;SDS011;30314;48.184;11.510;2023-05-15T08:22:02;8.27;;;5.43;;
7661;SDS011;30314;48.184;11.510;2023-05-15T08:24:29;8.43;;;5.90;;
7661;SDS011;30314;48.184;11.510;2023-05-15T08:26:55;9.27;;;6.10;;
7661;SDS011;30314;48.184;11.510;2023-05-15T08:29:22;6.50;;;5.20;;
7661;SDS011;30314;48.184;11.510;2023-05-15T08:31:48;5.83;;;4.80;;
7661;SDS011;30314;48.184;11.510;2023-05-15T08:34:15;7.07;;;5.27;;
7661;SDS011;30314;48.184;11.510;2023-05-15T08:36:41;7.90;;;4.60;;
7661;SDS011;30314;48.184;11.510;2023-05-15T08:39:08;8.40;;;5.63;;
7661;SDS011;30314;48.184;11.510;2023-05-15T08:41:37;7.90;;;5.97;;
7661;SDS011;30314;48.184;11.510;2023-05-15T08:44:08;7.20;;;5.13;;
7661;SDS011;30314;48.184;11.510;2023-05-15T08:46:36;8.90;;;5.80;;
7661;SDS011;30314;48.184;11.510;2023-05-15T08:49:08;7.40;;;4.73;;
7661;SDS011;30314;48.184;11.510;2023-05-15T08:51:43;7.07;;;4.73;;
7661;SDS011;30314;48.184;11.510;2023-05-15T08:54:09;5.97;;;4.57;;
7661;SDS011;30314;48.184;11.510;2023-05-15T08:56:36;6.37;;;4.27;;
7661;SDS011;30314;48.184;11.510;2023-05-15T08:59:03;6.00;;;4.90;;
7661;SDS011;30314;48.184;11.510;2023-05-15T09:01:30;5.50;;;4.47;;
7661;SDS011;30314;48.184;11.510;2023-05-15T09:03:56;7.00;;;4.30;;
7661;SDS011;30314;48.184;11.510;2023-05-15T09:06:23;4.50;;;3.70;;
7661;SDS011;30314;48.184;11.510;2023-05-15T09:08:51;4.80;;;4.27;;
7661;SDS011;30314;48.184;11.510;2023-05-15T09:11:22;6.03;;;3.93;;
7661;SDS011;30314;48.184;11.510;2023-05-15T09:13:49;6.77;;;5.07;;
7661;SDS011;30314;48.184;11.510;2023-05-15T09:16:16;7.00;;;4.30;;
7661;SDS011;30314;48.184;11.510;2023-05-15T09:18:43;5.93;;;4.60;;
7661;SDS011;30314;48.184;11.510;2023-05-15T09:21:23;7.03;;;4.83;;
7661;SDS011;30314;48.184;11.510;2023-05-15T09:23:54;6.57;;;4.67;;
7661;SDS011;30314;48.184;11.510;2023-05-15T09:26:40;8.33;;;4.93;;
7661;SDS011;30314;48.184;11.510;2023-05-15T09:29:08;5.97;;;4.10;;
7661;SDS011;30314;48.184;11.510;2023-05-15T09:31:34;8.23;;;5.07;;
7661;SDS011;30314;48.184;11.510;2023-05-15T09:34:01;6.23;;;4.50;;
7661;SDS011;30314;48.184;11.510;2023-05-15T09:36:29;6.07;;;4.67;;
7661;SDS011;30314;48.184;11.510;2023-05-15T09:38:58;7.13;;;4.50;;
7661;SDS011;30314;48.184;11.510;2023-05-15T09:41:26;7.33;;;4.93;;
7661;SDS011;30314;48.184;11.510;2023-05-15T09:43:54;6.00;;;4.70;;
7661;SDS011;30314;48.184;11.510;2023-05-15T09:46:22;6.93;;;5.13;;
7661;SDS011;30314;48.184;11.510;2023-05-15T09:48:53;7.13;;;5.53;;
7661;SDS011;30314;48.184;11.510;2023-05-15T09:51:20;6.90;;;5.20;;
7661;SDS011;30314;48.184;11.510;2023-05-15T09:53:48;8.73;;;6.03;;
7661;SDS011;30314;48.184;11.510;2023-05-15T09:56:16;5.90;;;4.60;;
7661;SDS011;30314;48.184;11.510;2023-05-15T09:58:52;11.47;;;4.97;;
7661;SDS011;30314;48.184;11.510;2023-05-15T10:01:24;6.20;;;4.87;;
7661;SDS011;30314;48.184;11.510;2023-05-15T10:04:01;7.33;;;5.43;;
7661;SDS011;30314;48.184;11.510;2023-05-15T10:06:34;6.73;;;5.00;;
7661;SDS011;30314;48.184;11.510;2023-05-15T10:09:02;8.80;;;5.70;;
7661;SDS011;30314;48.184;11.510;2023-05-15T10:11:29;8.80;;;5.77;;
7661;SDS011;30314;48.184;11.510;2023-05-15T10:14:04;9.23;;;4.47;;
7661;SDS011;30314;48.184;11.510;2023-05-15T10:16:32;5.10;;;4.00;;
7661;SDS011;30314;48.184;11.510;2023-05-15T10:19:04;8.50;;;4.60;;
7661;SDS011;30314;48.184;11.510;2023-05-15T10:21:34;6.23;;;4.90;;
7661;SDS011;30314;48.184;11.510;2023-05-15T10:24:05;5.90;;;3.80;;
7661;SDS011;30314;48.184;11.510;2023-05-15T10:26:36;5.43;;;4.40;;
7661;SDS011;30314;48.184;11.510;2023-05-15T10:31:37;7.77;;;5.30;;
7661;SDS011;30314;48.184;11.510;2023-05-15T10:34:05;6.87;;;4.57;;
7661;SDS011;30314;48.184;11.510;2023-05-15T10:36:37;5.93;;;4.47;;
7661;SDS011;30314;48.184;11.510;2023-05-15T10:39:05;9.20;;;5.90;;
7661;SDS011;30314;48.184;11.510;2023-05-15T10:41:34;7.27;;;4.60;;
7661;SDS011;30314;48.184;11.510;2023-05-15T10:44:02;7.40;;;5.00;;
7661;SDS011;30314;48.184;11.510;2023-05-15T10:46:29;5.93;;;4.47;;
7661;SDS011;30314;48.184;11.510;2023-05-15T10:48:59;6.80;;;4.60;;
7661;SDS011;30314;48.184;11.510;2023-05-15T10:51:27;8.20;;;5.47;;
7661;SDS011;30314;48.184;11.510;2023-05-15T10:53:56;7.30;;;5.17;;
7661;SDS011;30314;48.184;11.510;2023-05-15T10:56:28;7.87;;;5.90;;
7661;SDS011;30314;48.184;11.510;2023-05-15T10:58:56;8.87;;;6.90;;
7661;SDS011;30314;48.184;11.510;2023-05-15T11:01:40;7.47;;;5.60;;
7661;SDS011;30314;48.184;11.510;2023-05-15T11:06:36;4.70;;;4.17;;
7661;SDS011;30314;48.184;11.510;2023-05-15T11:09:31;5.50;;;3.80;;
7661;SDS011;30314;48.184;11.510;2023-05-15T11:12:00;4.80;;;3.80;;
7661;SDS011;30314;48.184;11.510;2023-05-15T11:14:29;5.77;;;3.70;;
7661;SDS011;30314;48.184;11.510;2023-05-15T11:16:58;7.27;;;5.00;;
7661;SDS011;30314;48.184;11.510;2023-05-15T11:19:36;8.03;;;5.27;;
7661;SDS011;30314;48.184;11.510;2023-05-15T11:24:47;7.90;;;4.80;;
7661;SDS011;30314;48.184;11.510;2023-05-15T11:35:40;13.53;;;5.20;;
7661;SDS011;30314;48.184;11.510;2023-05-15T11:40:47;7.67;;;5.37;;
7661;SDS011;30314;48.184;11.510;2023-05-15T11:43:25;7.07;;;4.77;;
7661;SDS011;30314;48.184;11.510;2023-05-15T11:45:52;7.60;;;5.70;;
7661;SDS011;30314;48.184;11.510;2023-05-15T11:48:22;10.20;;;4.60;;
7661;SDS011;30314;48.184;11.510;2023-05-15T11:50:49;7.67;;;6.10;;
7661;SDS011;30314;48.184;11.510;2023-05-15T11:53:19;6.70;;;4.30;;
7661;SDS011;30314;48.184;11.510;2023-05-15T11:55:50;7.93;;;4.60;;
7661;SDS011;30314;48.184;11.510;2023-05-15T11:58:18;6.60;;;4.77;;
7661;SDS011;30314;48.184;11.510;2023-05-15T12:00:47;5.10;;;3.73;;
7661;SDS011;30314;48.184;11.510;2023-05-15T12:03:15;4.00;;;2.60;;
7661;SDS011;30314;48.184;11.510;2023-05-15T12:05:52;3.57;;;2.97;;
7661;SDS011;30314;48.184;11.510;2023-05-15T12:08:29;2.53;;;2.30;;
7661;SDS011;30314;48.184;11.510;2023-05-15T12:10:59;3.63;;;2.63;;
7661;SDS011;30314;48.184;11.510;2023-05-15T12:13:27;2.70;;;2.20;;
7661;SDS011;30314;48.184;11.510;2023-05-15T12:15:54;5.60;;;2.67;;
7661;SDS011;30314;48.184;11.510;2023-05-15T12:18:22;3.97;;;3.07;;
7661;SDS011;30314;48.184;11.510;2023-05-15T12:20:50;4.13;;;3.00;;
7661;SDS011;30314;48.184;11.510;2023-05-15T12:23:19;8.70;;;3.60;;
7661;SDS011;30314;48.184;11.510;2023-05-15T12:25:48;5.60;;;4.20;;
7661;SDS011;30314;48.184;11.510;2023-05-15T12:28:17;5.57;;;3.70;;
7661;SDS011;30314;48.184;11.510;2023-05-15T12:30:43;4.63;;;3.57;;
7661;SDS011;30314;48.184;11.510;2023-05-15T12:33:10;2.60;;;2.30;;
7661;SDS011;30314;48.184;11.510;2023-05-15T12:35:42;3.30;;;2.63;;
7661;SDS011;30314;48.184;11.510;2023-05-15T12:38:13;4.87;;;2.20;;
7661;SDS011;30314;48.184;11.510;2023-05-15T12:40:43;5.23;;;3.60;;
7661;SDS011;30314;48.184;11.510;2023-05-15T12:43:15;6.23;;;3.10;;
7661;SDS011;30314;48.184;11.510;2023-05-15T12:45:42;3.90;;;2.73;;
7661;SDS011;30314;48.184;11.510;2023-05-15T12:48:13;5.70;;;2.90;;
7661;SDS011;30314;48.184;11.510;2023-05-15T12:50:42;7.73;;;2.97;;
7661;SDS011;30314;48.184;11.510;2023-05-15T12:53:11;4.20;;;3.40;;
7661;SDS011;30314;48.184;11.510;2023-05-15T12:55:42;5.10;;;3.03;;
7661;SDS011;30314;48.184;11.510;2023-05-15T12:58:11;5.50;;;3.40;;
7661;SDS011;30314;48.184;11.510;2023-05-15T13:00:41;4.63;;;3.40;;
7661;SDS011;30314;48.184;11.510;2023-05-15T13:03:09;7.50;;;3.97;;
7661;SDS011;30314;48.184;11.510;2023-05-15T13:05:37;6.53;;;4.20;;
7661;SDS011;30314;48.184;11.510;2023-05-15T13:08:05;6.97;;;4.60;;
7661;SDS011;30314;48.184;11.510;2023-05-15T13:10:35;5.97;;;4.37;;
7661;SDS011;30314;48.184;11.510;2023-05-15T13:13:03;6.17;;;4.60;;
7661;SDS011;30314;48.184;11.510;2023-05-15T13:15:35;4.47;;;3.77;;
7661;SDS011;30314;48.184;11.510;2023-05-15T13:18:10;4.00;;;3.50;;
7661;SDS011;30314;48.184;11.510;2023-05-15T13:20:41;4.70;;;3.60;;
7661;SDS011;30314;48.184;11.510;2023-05-15T13:23:16;4.90;;;2.97;;
7661;SDS011;30314;48.184;11.510;2023-05-15T13:25:44;4.80;;;3.33;;
7661;SDS011;30314;48.184;11.510;2023-05-15T13:28:11;4.23;;;3.20;;
7661;SDS011;30314;48.184;11.510;2023-05-15T13:30:38;4.30;;;3.47;;
7661;SDS011;30314;48.184;11.510;2023-05-15T13:33:09;2.53;;;2.20;;
7661;SDS011;30314;48.184;11.510;2023-05-15T13:35:37;3.93;;;2.90;;
7661;SDS011;30314;48.184;11.510;2023-05-15T13:38:04;3.93;;;3.00;;
7661;SDS011;30314;48.184;11.510;2023-05-15T13:40:33;4.47;;;2.80;;
7661;SDS011;30314;48.184;11.510;2023-05-15T13:43:02;3.03;;;2.63;;
7661;SDS011;30314;48.184;11.510;2023-05-15T13:45:29;7.83;;;2.90;;
7661;SDS011;30314;48.184;11.510;2023-05-15T13:47:55;3.80;;;2.80;;
7661;SDS011;30314;48.184;11.510;2023-05-15T13:50:22;4.53;;;3.17;;
7661;SDS011;30314;48.184;11.510;2023-05-15T13:52:49;6.43;;;3.07;;
7661;SDS011;30314;48.184;11.510;2023-05-15T13:55:15;5.37;;;3.80;;
7661;SDS011;30314;48.184;11.510;2023-05-15T13:57:42;4.33;;;3.10;;
7661;SDS011;30314;48.184;11.510;2023-05-15T14:00:09;4.80;;;2.37;;
7661;SDS011;30314;48.184;11.510;2023-05-15T14:02:38;3.63;;;2.33;;
7661;SDS011;30314;48.184;11.510;2023-05-15T14:05:06;3.27;;;2.70;;
7661;SDS011;30314;48.184;11.510;2023-05-15T14:07:33;4.83;;;2.60;;
7661;SDS011;30314;48.184;11.510;2023-05-15T14:10:00;2.60;;;2.40;;
7661;SDS011;30314;48.184;11.510;2023-05-15T14:12:26;5.40;;;2.10;;
7661;SDS011;30314;48.184;11.510;2023-05-15T14:14:53;3.33;;;2.10;;
7661;SDS011;30314;48.184;11.510;2023-05-15T14:17:21;4.47;;;2.77;;
7661;SDS011;30314;48.184;11.510;2023-05-15T14:19:47;2.70;;;2.17;;
7661;SDS011;30314;48.184;11.510;2023-05-15T14:22:14;4.67;;;2.90;;
7661;SDS011;30314;48.184;11.510;2023-05-15T14:24:41;3.53;;;2.70;;
7661;SDS011;30314;48.184;11.510;2023-05-15T14:27:07;3.07;;;2.77;;
7661;SDS011;30314;48.184;11.510;2023-05-15T14:29:34;4.20;;;2.53;;
7661;SDS011;30314;48.184;11.510;2023-05-15T14:32:01;5.73;;;3.07;;
7661;SDS011;30314;48.184;11.510;2023-05-15T14:34:28;3.47;;;2.47;;
7661;SDS011;30314;48.184;11.510;2023-05-15T14:36:55;3.30;;;2.67;;
7661;SDS011;30314;48.184;11.510;2023-05-15T14:39:21;5.33;;;2.93;;
7661;SDS011;30314;48.184;11.510;2023-05-15T14:41:48;4.37;;;2.87;;
7661;SDS011;30314;48.184;11.510;2023-05-15T14:44:15;5.23;;;3.57;;
7661;SDS011;30314;48.184;11.510;2023-05-15T14:46:41;5.73;;;3.17;;
7661;SDS011;30314;48.184;11.510;2023-05-15T14:49:08;4.67;;;3.17;;
7661;SDS011;30314;48.184;11.510;2023-05-15T14:51:35;6.17;;;3.60;;
7661;SDS011;30314;48.184;11.510;2023-05-15T14:54:01;4.37;;;3.20;;
7661;SDS011;30314;48.184;11.510;2023-05-15T14:56:30;6.30;;;3.83;;
7661;SDS011;30314;48.184;11.510;2023-05-15T14:58:56;6.60;;;3.70;;
7661;SDS011;30314;48.184;11.510;2023-05-15T15:01:23;8.17;;;3.93;;
7661;SDS011;30314;48.184;11.510;2023-05-15T15:03:50;4.97;;;3.77;;
7661;SDS011;30314;48.184;11.510;2023-05-15T15:06:17;8.83;;;4.37;;
7661;SDS011;30314;48.184;11.510;2023-05-15T15:08:43;9.13;;;4.13;;
7661;SDS011;30314;48.184;11.510;2023-05-15T15:11:10;8.13;;;5.20;;
7661;SDS011;30314;48.184;11.510;2023-05-15T15:13:36;5.43;;;3.70;;